createdAt,value
2023-05-09T00:01:24.462Z,50.95
2023-05-09T00:03:52.285Z,49.60
2023-05-09T00:06:19.741Z,53.33
2023-05-09T00:08:46.641Z,46.75
2023-05-09T00:11:13.523Z,49.03
2023-05-09T00:13:41.767Z,51.63
2023-05-09T00:16:09.192Z,48.87
2023-05-09T00:18:37.437Z,60.85
2023-05-09T00:21:04.458Z,54.00
2023-05-09T00:23:31.246Z,57.05
2023-05-09T00:25:59.140Z,53.65
2023-05-09T00:28:25.872Z,47.23
2023-05-09T00:30:52.800Z,52.13
2023-05-09T00:33:20.677Z,50.42
2023-05-09T00:35:47.670Z,45.60
2023-05-09T00:38:14.442Z,48.55
2023-05-09T00:40:41.191Z,49.27
2023-05-09T00:43:08.004Z,52.42
2023-05-09T00:45:34.730Z,56.00
2023-05-09T00:48:01.534Z,54.35
2023-05-09T00:50:28.486Z,50.63
2023-05-09T00:52:55.532Z,53.90
2023-05-09T00:55:23.109Z,60.28
2023-05-09T00:57:49.796Z,60.95
2023-05-09T01:00:17.068Z,56.53
2023-05-09T01:02:47.917Z,56.42
2023-05-09T01:05:15.443Z,57.83
2023-05-09T01:07:57.061Z,57.47
2023-05-09T01:10:32.790Z,57.97
2023-05-09T01:13:13.951Z,50.70
2023-05-09T01:15:59.579Z,57.65
2023-05-09T01:18:29.934Z,62.17
2023-05-09T01:21:08.630Z,55.38
2023-05-09T01:23:44.384Z,61.35
2023-05-09T01:26:26.070Z,60.40
2023-05-09T01:29:14.686Z,53.83
2023-05-09T01:31:43.907Z,57.13
2023-05-09T01:34:13.090Z,57.70
2023-05-09T01:36:42.375Z,60.30
2023-05-09T01:39:13.056Z,56.58
2023-05-09T01:41:40.006Z,54.28
2023-05-09T01:44:11.418Z,56.20
2023-05-09T01:46:39.298Z,54.08
2023-05-09T01:49:08.345Z,55.80
2023-05-09T01:51:37.434Z,49.65
2023-05-09T01:54:06.706Z,51.72
2023-05-09T01:56:36.151Z,60.20
2023-05-09T01:59:06.553Z,58.35
2023-05-09T02:01:34.208Z,55.90
2023-05-09T02:04:02.071Z,61.42
2023-05-09T02:06:29.904Z,59.13
2023-05-09T02:08:58.331Z,56.80
2023-05-09T02:11:26.126Z,56.60
2023-05-09T02:13:52.894Z,59.00
2023-05-09T02:16:20.776Z,54.85
2023-05-09T02:18:47.847Z,51.42
2023-05-09T02:21:14.707Z,60.30
2023-05-09T02:23:41.681Z,61.30
2023-05-09T02:26:08.930Z,60.92
2023-05-09T02:28:36.616Z,56.20
2023-05-09T02:31:06.992Z,55.08
2023-05-09T02:33:35.836Z,61.43
2023-05-09T02:36:03.247Z,58.92
2023-05-09T02:38:30.300Z,51.05
2023-05-09T02:40:57.035Z,58.60
2023-05-09T02:43:26.715Z,60.30
2023-05-09T02:45:55.311Z,55.50
2023-05-09T02:48:22.015Z,56.85
2023-05-09T02:50:48.825Z,53.30
2023-05-09T02:53:15.558Z,59.28
2023-05-09T02:55:42.290Z,59.78
2023-05-09T02:58:14.146Z,59.57
2023-05-09T03:00:43.438Z,58.20
2023-05-09T03:03:12.205Z,66.05
2023-05-09T03:05:39.016Z,57.03
2023-05-09T03:08:05.867Z,62.30
2023-05-09T03:10:34.203Z,56.57
2023-05-09T03:13:01.270Z,54.45
2023-05-09T03:15:28.038Z,60.08
2023-05-09T03:17:54.798Z,57.88
2023-05-09T03:20:22.285Z,64.30
2023-05-09T03:22:49.565Z,68.70
2023-05-09T03:25:17.032Z,62.15
2023-05-09T03:27:44.583Z,57.47
2023-05-09T03:30:14.846Z,60.88
2023-05-09T03:32:43.386Z,60.88
2023-05-09T03:35:10.353Z,55.33
2023-05-09T03:37:37.371Z,51.05
2023-05-09T03:40:06.886Z,54.40
2023-05-09T03:42:39.625Z,59.70
2023-05-09T03:45:06.924Z,53.33
2023-05-09T03:47:33.855Z,50.07
2023-05-09T03:50:01.081Z,50.63
2023-05-09T03:52:27.873Z,46.38
2023-05-09T03:54:54.880Z,50.40
2023-05-09T03:57:21.725Z,46.72
2023-05-09T03:59:51.224Z,47.17
2023-05-09T04:02:18.107Z,53.08
2023-05-09T04:04:47.287Z,46.70
2023-05-09T04:07:15.850Z,49.70
2023-05-09T04:09:42.850Z,47.90
2023-05-09T04:12:09.571Z,47.40
2023-05-09T04:14:36.370Z,45.60
2023-05-09T04:17:03.560Z,48.45
2023-05-09T04:19:30.695Z,53.10
2023-05-09T04:21:57.449Z,40.22
2023-05-09T04:24:24.295Z,45.03
2023-05-09T04:26:51.324Z,47.35
2023-05-09T04:29:21.521Z,42.85
2023-05-09T04:31:52.870Z,44.20
2023-05-09T04:34:21.331Z,41.42
2023-05-09T04:36:48.272Z,44.67
2023-05-09T04:39:14.979Z,43.03
2023-05-09T04:41:50.845Z,41.85
2023-05-09T04:44:18.554Z,42.17
2023-05-09T04:46:45.872Z,39.50
2023-05-09T04:49:12.765Z,37.50
2023-05-09T04:51:39.468Z,33.88
2023-05-09T04:54:06.747Z,42.90
2023-05-09T04:56:36.991Z,39.67
2023-05-09T04:59:03.791Z,32.15
2023-05-09T05:01:30.990Z,35.07
2023-05-09T05:03:58.446Z,41.83
2023-05-09T05:06:25.218Z,33.13
2023-05-09T05:08:51.896Z,35.47
2023-05-09T05:11:18.631Z,32.53
2023-05-09T05:13:45.879Z,32.53
2023-05-09T05:16:12.667Z,31.65
2023-05-09T05:18:39.806Z,30.20
2023-05-09T05:21:06.744Z,27.98
2023-05-09T05:23:33.497Z,33.80
2023-05-09T05:26:00.236Z,25.27
2023-05-09T05:28:28.022Z,26.45
2023-05-09T05:30:54.976Z,28.23
2023-05-09T05:33:21.674Z,29.65
2023-05-09T05:35:48.650Z,27.88
2023-05-09T05:38:15.451Z,23.93
2023-05-09T05:40:44.961Z,29.08
2023-05-09T05:43:11.743Z,25.80
2023-05-09T05:45:39.281Z,32.90
2023-05-09T05:48:08.622Z,25.58
2023-05-09T05:50:36.663Z,26.00
2023-05-09T05:53:04.159Z,26.85
2023-05-09T05:55:30.972Z,27.63
2023-05-09T05:57:57.729Z,25.70
2023-05-09T06:00:25.315Z,27.13
2023-05-09T06:02:59.589Z,28.30
2023-05-09T06:05:33.689Z,25.98
2023-05-09T06:08:00.532Z,23.73
2023-05-09T06:10:27.448Z,27.40
2023-05-09T06:12:54.261Z,26.83
2023-05-09T06:15:22.239Z,27.40
2023-05-09T06:17:50.270Z,27.45
2023-05-09T06:20:17.082Z,23.23
2023-05-09T06:22:43.791Z,28.90
2023-05-09T06:25:10.785Z,29.85
2023-05-09T06:27:38.055Z,31.27
2023-05-09T06:30:14.181Z,23.88
2023-05-09T06:32:51.260Z,28.52
2023-05-09T06:35:18.176Z,27.35
2023-05-09T06:37:46.491Z,25.60
2023-05-09T06:40:14.633Z,29.37
2023-05-09T06:42:41.349Z,28.35
2023-05-09T06:45:08.643Z,26.40
2023-05-09T06:47:35.615Z,24.80
2023-05-09T06:50:02.426Z,24.85
2023-05-09T06:52:29.143Z,23.60
2023-05-09T06:54:55.859Z,24.55
2023-05-09T06:57:22.822Z,26.10
2023-05-09T06:59:49.550Z,25.42
2023-05-09T07:02:16.545Z,27.17
2023-05-09T07:04:43.378Z,25.13
2023-05-09T07:07:10.338Z,25.92
2023-05-09T07:09:37.217Z,26.50
2023-05-09T07:12:04.287Z,23.40
2023-05-09T07:14:31.084Z,25.55
2023-05-09T07:17:09.809Z,25.63
2023-05-09T07:19:44.430Z,24.25
2023-05-09T07:22:11.239Z,23.25
2023-05-09T07:24:37.978Z,23.10
2023-05-09T07:27:04.883Z,26.30
2023-05-09T07:29:31.662Z,27.93
2023-05-09T07:31:58.398Z,24.70
2023-05-09T07:34:25.538Z,23.42
2023-05-09T07:36:52.392Z,23.08
2023-05-09T07:39:19.120Z,26.15
2023-05-09T07:41:47.891Z,21.70
2023-05-09T07:44:15.759Z,26.70
2023-05-09T07:46:43.035Z,21.00
2023-05-09T07:49:10.136Z,25.90
2023-05-09T07:51:36.929Z,19.20
2023-05-09T07:54:03.772Z,21.43
2023-05-09T07:56:30.488Z,23.35
2023-05-09T07:58:57.240Z,25.90
2023-05-09T08:01:23.972Z,23.70
2023-05-09T08:03:50.860Z,23.80
2023-05-09T08:06:17.695Z,20.30
2023-05-09T08:08:44.436Z,23.08
2023-05-09T08:11:11.207Z,19.63
2023-05-09T08:13:38.056Z,22.20
2023-05-09T08:16:04.967Z,21.42
2023-05-09T08:18:31.685Z,23.67
2023-05-09T08:20:59.571Z,21.50
2023-05-09T08:23:26.775Z,20.05
2023-05-09T08:25:54.657Z,19.88
2023-05-09T08:28:24.187Z,18.45
2023-05-09T08:30:51.932Z,17.50
2023-05-09T08:33:19.120Z,17.25
2023-05-09T08:35:46.050Z,18.83
2023-05-09T08:38:12.760Z,19.83
2023-05-09T08:40:41.290Z,16.63
2023-05-09T08:43:08.609Z,18.43
2023-05-09T08:45:40.255Z,17.08
2023-05-09T08:48:08.318Z,17.48
2023-05-09T08:50:35.507Z,20.67
2023-05-09T08:53:02.435Z,15.70
2023-05-09T08:55:29.739Z,17.20
2023-05-09T08:57:57.932Z,17.27
2023-05-09T09:00:26.231Z,16.38
2023-05-09T09:02:54.308Z,12.25
2023-05-09T09:05:39.965Z,11.40
2023-05-09T09:08:08.606Z,12.13
2023-05-09T09:10:35.640Z,10.23
2023-05-09T09:13:04.905Z,11.25
2023-05-09T09:15:36.217Z,11.35
2023-05-09T09:18:11.731Z,11.73
2023-05-09T09:20:45.740Z,10.33
2023-05-09T09:23:17.661Z,11.52
2023-05-09T09:25:47.200Z,12.85
2023-05-09T09:28:14.019Z,12.43
2023-05-09T09:30:44.891Z,14.55
2023-05-09T09:33:20.249Z,10.67
2023-05-09T09:35:48.654Z,11.85
2023-05-09T09:38:19.391Z,12.07
2023-05-09T09:41:04.133Z,12.40
2023-05-09T09:43:31.848Z,11.88
2023-05-09T09:46:02.653Z,13.13
2023-05-09T09:48:34.601Z,15.20
2023-05-09T09:51:10.324Z,9.32
2023-05-09T09:53:41.408Z,10.07
2023-05-09T09:56:08.358Z,10.75
2023-05-09T09:58:35.528Z,11.80
2023-05-09T10:01:14.006Z,11.55
2023-05-09T10:03:42.867Z,9.77
2023-05-09T10:06:11.965Z,8.63
2023-05-09T10:08:43.044Z,8.65
2023-05-09T10:11:10.411Z,8.57
2023-05-09T10:13:38.434Z,11.50
2023-05-09T10:16:07.589Z,11.38
2023-05-09T10:18:35.552Z,12.43
2023-05-09T10:21:05.039Z,12.43
2023-05-09T10:23:34.702Z,10.97
2023-05-09T10:26:19.720Z,11.13
2023-05-09T10:28:49.711Z,8.90
2023-05-09T10:31:28.549Z,9.43
2023-05-09T10:33:56.008Z,11.43
2023-05-09T10:36:23.864Z,10.17
2023-05-09T10:38:53.810Z,7.97
2023-05-09T10:41:25.599Z,10.77
2023-05-09T10:43:56.469Z,9.85
2023-05-09T10:46:24.292Z,11.77
2023-05-09T10:48:51.300Z,9.17
2023-05-09T10:51:18.196Z,10.07
2023-05-09T10:53:49.727Z,12.23
2023-05-09T10:56:33.657Z,12.55
2023-05-09T10:59:00.824Z,9.80
2023-05-09T11:01:38.965Z,10.00
2023-05-09T11:04:14.570Z,9.05
2023-05-09T11:06:44.856Z,10.45
2023-05-09T11:09:38.729Z,9.40
2023-05-09T11:12:05.485Z,10.88
2023-05-09T11:14:38.187Z,11.83
2023-05-09T11:17:07.517Z,7.95
2023-05-09T11:19:39.297Z,9.57
2023-05-09T11:22:16.933Z,10.15
2023-05-09T11:24:52.121Z,10.38
2023-05-09T11:27:24.247Z,9.33
2023-05-09T11:29:55.383Z,10.50
2023-05-09T11:32:26.892Z,8.25
2023-05-09T11:35:14.942Z,10.55
2023-05-09T11:37:48.029Z,9.85
2023-05-09T11:40:19.842Z,10.07
2023-05-09T11:42:55.401Z,11.25
2023-05-09T11:45:29.832Z,11.20
2023-05-09T11:47:57.361Z,11.25
2023-05-09T11:50:24.995Z,9.10
2023-05-09T11:52:52.028Z,9.70
2023-05-09T11:55:22.202Z,8.57
2023-05-09T11:57:53.526Z,10.25
2023-05-09T12:00:24.733Z,9.15
2023-05-09T12:02:52.737Z,13.52
2023-05-09T12:05:21.829Z,21.63
2023-05-09T12:07:49.109Z,14.13
2023-05-09T12:10:19.456Z,9.95
2023-05-09T12:12:51.292Z,11.88
2023-05-09T12:15:19.512Z,11.70
2023-05-09T12:17:48.121Z,13.90
2023-05-09T12:20:16.523Z,9.13
2023-05-09T12:22:44.166Z,12.45
2023-05-09T12:25:12.022Z,11.07
2023-05-09T12:27:40.487Z,9.25
2023-05-09T12:30:10.300Z,10.73
2023-05-09T12:32:39.320Z,9.93
2023-05-09T12:35:10.494Z,8.98
2023-05-09T12:37:37.820Z,8.55
2023-05-09T12:40:12.991Z,9.35
2023-05-09T12:42:43.019Z,10.33
2023-05-09T12:45:10.630Z,9.85
2023-05-09T12:47:39.056Z,9.65
2023-05-09T12:50:07.440Z,7.90
2023-05-09T12:52:44.194Z,11.27
2023-05-09T12:55:19.757Z,8.87
2023-05-09T12:57:58.643Z,10.10
2023-05-09T13:00:25.978Z,8.35
2023-05-09T13:02:53.074Z,7.80
2023-05-09T13:05:22.036Z,7.10
2023-05-09T13:07:52.136Z,8.30
2023-05-09T13:10:23.581Z,7.78
2023-05-09T13:12:51.347Z,7.20
2023-05-09T13:15:20.283Z,8.65
2023-05-09T13:17:51.392Z,7.22
2023-05-09T13:20:19.560Z,7.87
2023-05-09T13:22:46.852Z,8.15
2023-05-09T13:25:13.997Z,10.10
2023-05-09T13:27:40.866Z,8.63
2023-05-09T13:30:08.419Z,6.68
2023-05-09T13:32:36.719Z,10.37
2023-05-09T13:35:06.775Z,7.03
2023-05-09T13:37:34.637Z,8.50
2023-05-09T13:40:01.929Z,7.18
2023-05-09T13:42:28.740Z,8.38
2023-05-09T13:44:55.572Z,7.83
2023-05-09T13:47:22.349Z,6.68
2023-05-09T13:49:49.189Z,9.95
2023-05-09T13:52:16.441Z,7.28
2023-05-09T13:54:43.591Z,9.05
2023-05-09T13:57:10.998Z,6.83
2023-05-09T13:59:38.088Z,8.18
2023-05-09T14:02:04.966Z,7.97
2023-05-09T14:04:31.999Z,8.52
2023-05-09T14:06:59.848Z,9.85
2023-05-09T14:09:28.310Z,7.83
2023-05-09T14:11:56.571Z,7.03
2023-05-09T14:14:25.444Z,8.82
2023-05-09T14:16:52.217Z,7.82
2023-05-09T14:19:19.002Z,7.63
2023-05-09T14:21:49.003Z,8.33
2023-05-09T14:24:16.431Z,6.70
2023-05-09T14:26:43.703Z,8.43
2023-05-09T14:29:10.676Z,9.18
2023-05-09T14:31:37.597Z,8.50
2023-05-09T14:34:05.316Z,5.67
2023-05-09T14:36:35.070Z,5.78
2023-05-09T14:39:02.364Z,6.28
2023-05-09T14:41:29.095Z,5.03
2023-05-09T14:43:55.843Z,6.78
2023-05-09T14:46:24.686Z,5.07
2023-05-09T14:48:52.538Z,6.22
2023-05-09T14:51:19.349Z,4.95
2023-05-09T14:53:47.184Z,5.68
2023-05-09T14:56:14.217Z,5.95
2023-05-09T14:58:41.037Z,6.03
2023-05-09T15:01:07.803Z,6.70
2023-05-09T15:03:34.629Z,4.90
2023-05-09T15:06:01.506Z,5.70
2023-05-09T15:08:28.330Z,5.38
2023-05-09T15:10:55.092Z,6.07
2023-05-09T15:13:21.891Z,6.53
2023-05-09T15:15:48.741Z,6.93
2023-05-09T15:18:17.007Z,6.80
2023-05-09T15:20:44.014Z,6.20
2023-05-09T15:23:12.437Z,5.50
2023-05-09T15:25:41.468Z,6.63
2023-05-09T15:28:08.296Z,6.45
2023-05-09T15:30:38.167Z,7.70
2023-05-09T15:33:05.404Z,7.13
2023-05-09T15:35:32.261Z,5.80
2023-05-09T15:37:59.439Z,5.65
2023-05-09T15:40:26.390Z,5.75
2023-05-09T15:42:53.082Z,4.95
2023-05-09T15:45:19.757Z,5.75
2023-05-09T15:47:46.538Z,5.27
2023-05-09T15:50:13.512Z,5.60
2023-05-09T15:52:40.367Z,5.57
2023-05-09T15:55:08.538Z,5.78
2023-05-09T15:57:35.320Z,6.80
2023-05-09T16:00:02.015Z,5.73
2023-05-09T16:02:39.350Z,5.45
2023-05-09T16:05:06.506Z,5.78
2023-05-09T16:07:35.371Z,4.25
2023-05-09T16:10:02.848Z,7.03
2023-05-09T16:12:32.524Z,4.37
2023-05-09T16:14:59.342Z,4.93
2023-05-09T16:17:26.138Z,10.02
2023-05-09T16:19:54.700Z,6.13
2023-05-09T16:22:21.795Z,8.65
2023-05-09T16:24:49.119Z,3.60
2023-05-09T16:27:16.366Z,5.97
2023-05-09T16:29:43.630Z,5.78
2023-05-09T16:32:10.733Z,6.45
2023-05-09T16:34:37.603Z,5.95
2023-05-09T16:37:04.315Z,5.30
2023-05-09T16:39:31.379Z,4.70
2023-05-09T16:41:58.605Z,6.95
2023-05-09T16:44:26.332Z,4.32
2023-05-09T16:46:53.200Z,4.93
2023-05-09T16:49:20.023Z,4.10
2023-05-09T16:51:47.242Z,4.82
2023-05-09T16:54:14.297Z,5.43
2023-05-09T16:56:41.548Z,4.95
2023-05-09T16:59:08.225Z,4.38
2023-05-09T17:01:35.056Z,5.20
2023-05-09T17:04:01.986Z,3.92
2023-05-09T17:06:28.679Z,4.10
2023-05-09T17:08:55.504Z,6.80
2023-05-09T17:11:22.744Z,4.32
2023-05-09T17:13:49.582Z,6.37
2023-05-09T17:16:16.348Z,4.70
2023-05-09T17:18:45.931Z,3.88
2023-05-09T17:21:14.199Z,4.45
2023-05-09T17:23:41.027Z,5.70
2023-05-09T17:26:08.178Z,5.43
2023-05-09T17:28:34.922Z,4.45
2023-05-09T17:31:03.281Z,5.00
2023-05-09T17:33:30.209Z,5.55
2023-05-09T17:35:57.361Z,6.25
2023-05-09T17:38:24.920Z,5.77
2023-05-09T17:40:52.035Z,5.47
2023-05-09T17:43:18.720Z,6.93
2023-05-09T17:45:46.272Z,14.75
2023-05-09T17:48:13.545Z,8.65
2023-05-09T17:50:40.266Z,14.13
2023-05-09T17:53:09.390Z,6.00
2023-05-09T17:55:36.380Z,6.32
2023-05-09T17:58:03.107Z,15.13
2023-05-09T18:00:29.961Z,9.40
2023-05-09T18:03:00.853Z,8.60
2023-05-09T18:05:27.984Z,23.25
2023-05-09T18:07:54.724Z,11.38
2023-05-09T18:10:21.543Z,19.25
2023-05-09T18:12:48.455Z,16.23
2023-05-09T18:15:15.238Z,17.20
2023-05-09T18:17:42.184Z,12.95
2023-05-09T18:20:09.276Z,10.98
2023-05-09T18:22:37.263Z,9.93
2023-05-09T18:25:04.144Z,10.82
2023-05-09T18:27:30.936Z,11.10
2023-05-09T18:29:57.678Z,9.02
2023-05-09T18:32:24.603Z,9.93
2023-05-09T18:34:51.670Z,10.77
2023-05-09T18:37:18.659Z,13.05
2023-05-09T18:39:45.414Z,14.87
2023-05-09T18:42:13.351Z,7.10
2023-05-09T18:44:42.115Z,8.25
2023-05-09T18:47:08.928Z,9.50
2023-05-09T18:49:35.702Z,7.25
2023-05-09T18:52:03.260Z,7.30
2023-05-09T18:54:30.133Z,8.40
2023-05-09T18:56:56.982Z,7.63
2023-05-09T18:59:24.726Z,7.22
2023-05-09T19:01:51.594Z,9.20
2023-05-09T19:04:19.522Z,7.67
2023-05-09T19:06:46.852Z,16.33
2023-05-09T19:09:13.681Z,10.80
2023-05-09T19:11:40.457Z,7.60
2023-05-09T19:14:07.339Z,9.27
2023-05-09T19:16:34.271Z,9.17
2023-05-09T19:19:01.529Z,11.90
2023-05-09T19:21:28.837Z,10.52
2023-05-09T19:23:55.564Z,8.85
2023-05-09T19:26:22.378Z,10.95
2023-05-09T19:28:49.179Z,8.87
2023-05-09T19:31:16.231Z,9.15
2023-05-09T19:33:45.585Z,10.73
2023-05-09T19:36:12.781Z,10.77
2023-05-09T19:38:40.048Z,11.43
2023-05-09T19:41:06.893Z,8.53
2023-05-09T19:43:33.667Z,8.40
2023-05-09T19:46:00.447Z,8.75
2023-05-09T19:48:27.259Z,7.25
2023-05-09T19:50:57.835Z,7.18
2023-05-09T19:53:25.179Z,6.90
2023-05-09T19:55:52.223Z,7.40
2023-05-09T19:58:19.012Z,7.68
2023-05-09T20:00:46.195Z,8.50
2023-05-09T20:03:13.089Z,6.38
2023-05-09T20:05:43.331Z,7.80
2023-05-09T20:08:10.211Z,5.45
2023-05-09T20:10:37.485Z,8.45
2023-05-09T20:13:04.517Z,6.53
2023-05-09T20:15:31.896Z,7.25
2023-05-09T20:17:58.854Z,6.23
2023-05-09T20:20:25.754Z,6.40
2023-05-09T20:22:52.670Z,6.65
2023-05-09T20:25:19.626Z,6.20
2023-05-09T20:27:46.462Z,5.32
2023-05-09T20:30:13.641Z,7.40
2023-05-09T20:32:40.600Z,6.78
2023-05-09T20:35:07.724Z,9.18
2023-05-09T20:37:34.514Z,7.63
2023-05-09T20:40:02.254Z,8.07
2023-05-09T20:42:29.844Z,6.97
2023-05-09T20:44:56.997Z,6.38
2023-05-09T20:47:24.342Z,6.55
2023-05-09T20:49:51.219Z,5.97
2023-05-09T20:52:18.006Z,6.43
2023-05-09T20:54:44.809Z,7.33
2023-05-09T20:57:11.678Z,6.18
2023-05-09T20:59:39.000Z,7.13
2023-05-09T21:02:05.807Z,6.32
2023-05-09T21:04:32.611Z,6.75
2023-05-09T21:06:59.637Z,6.97
2023-05-09T21:09:26.444Z,6.82
2023-05-09T21:11:53.278Z,7.20
2023-05-09T21:14:20.083Z,7.82
2023-05-09T21:16:47.042Z,8.18
2023-05-09T21:19:13.918Z,10.00
2023-05-09T21:21:40.786Z,9.90
2023-05-09T21:24:09.109Z,8.82
2023-05-09T21:26:36.458Z,9.40
2023-05-09T21:29:03.266Z,7.90
2023-05-09T21:31:30.213Z,8.77
2023-05-09T21:33:59.044Z,8.55
2023-05-09T21:36:26.065Z,9.73
2023-05-09T21:38:52.902Z,9.70
2023-05-09T21:41:21.818Z,11.00
2023-05-09T21:43:48.660Z,7.83
2023-05-09T21:46:15.568Z,9.38
2023-05-09T21:48:42.429Z,16.20
2023-05-09T21:51:09.198Z,11.68
2023-05-09T21:53:36.267Z,10.77
2023-05-09T21:56:03.156Z,9.80
2023-05-09T21:58:29.899Z,10.32
2023-05-09T22:00:56.631Z,10.77
2023-05-09T22:03:23.554Z,11.98
2023-05-09T22:05:50.492Z,10.45
2023-05-09T22:08:17.200Z,12.57
2023-05-09T22:10:43.925Z,13.60
2023-05-09T22:13:10.699Z,11.07
2023-05-09T22:15:37.407Z,12.55
2023-05-09T22:18:04.244Z,11.88
2023-05-09T22:20:31.124Z,10.73
2023-05-09T22:22:57.807Z,12.77
2023-05-09T22:25:24.529Z,12.43
2023-05-09T22:27:52.296Z,12.82
2023-05-09T22:30:19.061Z,14.43
2023-05-09T22:32:45.966Z,13.93
2023-05-09T22:35:12.693Z,15.85
2023-05-09T22:37:39.429Z,13.32
2023-05-09T22:40:06.762Z,19.52
2023-05-09T22:42:34.691Z,18.83
2023-05-09T22:45:01.728Z,20.83
2023-05-09T22:47:28.587Z,16.65
2023-05-09T22:49:55.857Z,18.98
2023-05-09T22:52:22.571Z,24.88
2023-05-09T22:54:49.284Z,19.02
2023-05-09T22:57:18.918Z,21.30
2023-05-09T22:59:46.301Z,19.13
2023-05-09T23:02:13.208Z,19.10
2023-05-09T23:04:40.166Z,19.90
2023-05-09T23:07:07.724Z,19.52
2023-05-09T23:09:34.755Z,21.40
2023-05-09T23:12:02.482Z,21.15
2023-05-09T23:14:29.381Z,20.60
2023-05-09T23:16:56.590Z,23.23
2023-05-09T23:19:23.376Z,26.75
2023-05-09T23:21:50.557Z,22.13
2023-05-09T23:24:17.482Z,21.38
2023-05-09T23:26:44.362Z,22.00
2023-05-09T23:29:11.120Z,21.83
2023-05-09T23:31:37.874Z,22.75
2023-05-09T23:34:04.673Z,21.63
2023-05-09T23:36:31.535Z,21.50
2023-05-09T23:38:58.314Z,24.58
2023-05-09T23:41:24.991Z,21.05
2023-05-09T23:43:51.827Z,24.98
2023-05-09T23:46:18.568Z,19.53
2023-05-09T23:48:45.634Z,19.13
2023-05-09T23:51:13.030Z,19.63
2023-05-09T23:53:39.767Z,21.67
2023-05-09T23:56:07.052Z,23.48
2023-05-09T23:58:33.990Z,25.77
